ポンタ・デルガダ の空港の天気 - METARとTAF

ポンタ・デルガダ空港 ( LPPD / PDL ) - ポルトガル ポンタ・デルガダ (サンミゲル島)
飛行場実況気象(Metar)
観測時間02/17 22:00 AZOT (02/17 23:00 UTC)
風向・風速北北西 3m/s
視程10km以上
天気現象
少しの雲 雲底高度 760m
気温9℃
湿度71%
気圧1031hPa
METARLPPD 172300Z 34006KT 9999 FEW025 09/04 Q1031
過去の天気等 Google飛行場航空写真 Wunderground天気予報

過去48時間のMETAR

飛行場予報(TAF)
発表時間: 2/17 16:00 AZOT (2/17 17:00 UTC)
予報対象時間: 17日17時 AZOT ~ 18日17時 AZOT
風向・風速北北西 4m/s
視程10km以上
全天の4割程度の雲 雲底高度 610m
17日17時 AZOT ~ 18日17時 AZOT に一時的に
少しの雲 雲底高度 550m
全天の8割程度の雲 雲底高度 1220m
17日20時 AZOT ~ 17日23時 AZOT に徐々に
風向・風速不定 3m/s
18日6時 AZOT ~ 18日9時 AZOT に徐々に
風向・風速南西 6m/s
TAF LPPD 171700Z 1718/1818 34008KT 9999 SCT020
TEMPO 1718/1818 FEW018 BKN040
BECMG 1721/1724 VRB05KT
BECMG 1807/1810 22012KT